createdAt,value
2023-04-12T00:01:04.933Z,9.80
2023-04-12T00:03:34.663Z,9.80
2023-04-12T00:06:03.271Z,9.80
2023-04-12T00:08:33.182Z,9.80
2023-04-12T00:11:01.467Z,9.80
2023-04-12T00:13:29.769Z,9.80
2023-04-12T00:15:56.759Z,9.80
2023-04-12T00:18:25.765Z,9.80
2023-04-12T00:20:53.233Z,9.80
2023-04-12T00:23:20.817Z,9.70
2023-04-12T00:25:48.010Z,9.70
2023-04-12T00:28:16.039Z,9.70
2023-04-12T00:30:43.856Z,9.90
2023-04-12T00:33:10.666Z,9.90
2023-04-12T00:35:37.620Z,10.00
2023-04-12T00:38:06.217Z,10.00
2023-04-12T00:40:33.278Z,10.00
2023-04-12T00:43:00.685Z,10.00
2023-04-12T00:45:27.612Z,9.90
2023-04-12T00:47:56.394Z,9.80
2023-04-12T00:50:24.085Z,9.80
2023-04-12T00:52:52.164Z,9.70
2023-04-12T00:55:19.484Z,9.60
2023-04-12T00:57:46.837Z,9.70
2023-04-12T01:00:14.185Z,9.60
2023-04-12T01:02:42.903Z,9.60
2023-04-12T01:05:15.007Z,9.50
2023-04-12T01:08:10.964Z,9.40
2023-04-12T01:11:10.593Z,9.40
2023-04-12T01:13:55.237Z,9.30
2023-04-12T01:16:53.833Z,9.20
2023-04-12T01:19:35.933Z,9.30
2023-04-12T01:22:13.925Z,9.20
2023-04-12T01:25:04.271Z,9.20
2023-04-12T01:27:46.429Z,9.20
2023-04-12T01:30:19.340Z,9.20
2023-04-12T01:32:51.568Z,9.10
2023-04-12T01:35:20.890Z,9.00
2023-04-12T01:37:48.179Z,8.90
2023-04-12T01:40:19.404Z,8.90
2023-04-12T01:42:46.484Z,8.80
2023-04-12T01:45:13.405Z,8.80
2023-04-12T01:47:41.077Z,8.70
2023-04-12T01:50:22.634Z,8.70
2023-04-12T01:53:10.990Z,8.60
2023-04-12T01:55:40.206Z,8.60
2023-04-12T01:58:09.721Z,8.50
2023-04-12T02:00:38.016Z,8.60
2023-04-12T02:03:06.822Z,8.50
2023-04-12T02:05:37.114Z,8.40
2023-04-12T02:08:04.742Z,8.30
2023-04-12T02:10:33.482Z,8.30
2023-04-12T02:13:02.191Z,8.30
2023-04-12T02:15:31.252Z,8.30
2023-04-12T02:18:00.757Z,8.30
2023-04-12T02:20:28.397Z,8.30
2023-04-12T02:22:55.486Z,8.20
2023-04-12T02:25:22.611Z,8.20
2023-04-12T02:27:50.069Z,8.10
2023-04-12T02:30:17.805Z,8.20
2023-04-12T02:32:51.633Z,8.20
2023-04-12T02:35:25.190Z,8.20
2023-04-12T02:37:59.145Z,8.20
2023-04-12T02:40:30.269Z,8.20
2023-04-12T02:42:57.620Z,8.20
2023-04-12T02:45:27.179Z,8.30
2023-04-12T02:47:55.644Z,8.20
2023-04-12T02:50:27.048Z,8.20
2023-04-12T02:53:01.776Z,8.20
2023-04-12T02:55:30.719Z,8.10
2023-04-12T02:58:00.946Z,8.10
2023-04-12T03:00:28.477Z,8.10
2023-04-12T03:03:03.879Z,8.10
2023-04-12T03:05:32.582Z,8.10
2023-04-12T03:08:00.550Z,8.10
2023-04-12T03:10:37.165Z,8.10
2023-04-12T03:13:05.263Z,8.10
2023-04-12T03:15:35.891Z,8.10
2023-04-12T03:18:03.620Z,8.00
2023-04-12T03:20:47.465Z,8.00
2023-04-12T03:23:17.855Z,8.10
2023-04-12T03:25:49.024Z,8.00
2023-04-12T03:28:34.236Z,8.10
2023-04-12T03:31:03.790Z,8.10
2023-04-12T03:33:39.556Z,8.10
2023-04-12T03:36:11.316Z,8.10
2023-04-12T03:38:40.919Z,8.10
2023-04-12T03:41:10.090Z,8.00
2023-04-12T03:43:39.021Z,8.00
2023-04-12T03:46:16.725Z,8.00
2023-04-12T03:48:45.386Z,8.00
2023-04-12T03:51:12.962Z,8.00
2023-04-12T03:53:44.163Z,8.00
2023-04-12T03:56:30.462Z,8.00
2023-04-12T03:59:01.478Z,7.90
2023-04-12T04:01:28.790Z,8.00
2023-04-12T04:03:56.097Z,8.00
2023-04-12T04:06:24.812Z,8.00
2023-04-12T04:08:55.991Z,8.00
2023-04-12T04:11:23.777Z,7.90
2023-04-12T04:13:54.156Z,8.00
2023-04-12T04:16:22.168Z,8.00
2023-04-12T04:18:50.802Z,7.90
2023-04-12T04:21:22.242Z,7.90
2023-04-12T04:23:54.149Z,8.00
2023-04-12T04:26:33.415Z,8.00
2023-04-12T04:29:10.160Z,8.00
2023-04-12T04:31:42.205Z,8.00
2023-04-12T04:34:12.319Z,8.00
2023-04-12T04:36:43.921Z,8.10
2023-04-12T04:39:12.488Z,8.10
2023-04-12T04:41:44.834Z,8.10
2023-04-12T04:44:22.897Z,8.10
2023-04-12T04:46:54.487Z,8.00
2023-04-12T04:49:21.290Z,8.10
2023-04-12T04:51:48.537Z,8.10
2023-04-12T04:54:16.621Z,8.20
2023-04-12T04:56:44.166Z,8.10
2023-04-12T05:02:11.820Z,8.20
2023-04-12T05:04:38.796Z,8.20
2023-04-12T05:07:06.827Z,8.20
2023-04-12T05:09:34.672Z,8.20
2023-04-12T05:12:02.276Z,8.20
2023-04-12T05:14:41.628Z,8.30
2023-04-12T05:17:12.852Z,8.20
2023-04-12T05:19:41.270Z,8.20
2023-04-12T05:22:09.100Z,8.20
2023-04-12T05:24:35.839Z,8.30
2023-04-12T05:27:02.634Z,8.30
2023-04-12T05:29:30.557Z,8.30
2023-04-12T05:31:59.076Z,8.20
2023-04-12T05:34:26.480Z,8.30
2023-04-12T05:36:56.865Z,8.20
2023-04-12T05:39:23.871Z,8.10
2023-04-12T05:41:52.699Z,8.20
2023-04-12T05:44:19.729Z,8.20
2023-04-12T05:46:47.226Z,8.20
2023-04-12T05:49:14.964Z,8.20
2023-04-12T05:51:42.038Z,8.20
2023-04-12T05:54:20.947Z,8.20
2023-04-12T05:56:49.033Z,8.20
2023-04-12T05:59:18.616Z,8.20
2023-04-12T06:01:45.727Z,8.30
2023-04-12T06:04:12.939Z,8.20
2023-04-12T06:06:39.953Z,8.20
2023-04-12T06:09:06.728Z,8.30
2023-04-12T06:11:33.810Z,8.20
2023-04-12T06:14:02.045Z,8.20
2023-04-12T06:16:29.567Z,8.20
2023-04-12T06:18:56.790Z,8.30
2023-04-12T06:21:24.480Z,8.30
2023-04-12T06:23:51.954Z,8.30
2023-04-12T06:26:18.990Z,8.30
2023-04-12T06:28:45.857Z,8.30
2023-04-12T06:31:12.799Z,8.30
2023-04-12T06:33:41.842Z,8.30
2023-04-12T06:36:11.534Z,8.30
2023-04-12T06:38:38.889Z,8.30
2023-04-12T06:41:06.407Z,8.30
2023-04-12T06:43:33.097Z,8.40
2023-04-12T06:46:02.724Z,8.40
2023-04-12T06:48:29.942Z,8.40
2023-04-12T06:50:56.750Z,8.50
2023-04-12T06:53:24.181Z,8.50
2023-04-12T06:55:51.250Z,8.50
2023-04-12T06:58:17.910Z,8.60
2023-04-12T07:00:44.881Z,8.60
2023-04-12T07:03:11.748Z,8.70
2023-04-12T07:05:39.428Z,8.70
2023-04-12T07:08:07.441Z,8.70
2023-04-12T07:10:35.990Z,8.70
2023-04-12T07:13:06.987Z,8.80
2023-04-12T07:15:34.031Z,8.80
2023-04-12T07:18:00.859Z,8.80
2023-04-12T07:20:27.626Z,8.90
2023-04-12T07:22:54.361Z,8.90
2023-04-12T07:25:21.241Z,8.90
2023-04-12T07:27:49.358Z,9.00
2023-04-12T07:30:18.091Z,9.00
2023-04-12T07:32:44.897Z,9.00
2023-04-12T07:35:11.721Z,9.10
2023-04-12T07:37:38.508Z,9.10
2023-04-12T07:40:06.393Z,9.10
2023-04-12T07:42:33.374Z,9.20
2023-04-12T07:45:00.035Z,9.30
2023-04-12T07:47:26.828Z,9.30
2023-04-12T07:49:53.565Z,9.40
2023-04-12T07:52:20.571Z,9.50
2023-04-12T07:54:47.198Z,9.60
2023-04-12T07:57:13.880Z,9.60
2023-04-12T07:59:40.716Z,9.70
2023-04-12T08:02:07.555Z,9.70
2023-04-12T08:04:34.364Z,9.80
2023-04-12T08:07:01.345Z,9.70
2023-04-12T08:09:28.550Z,9.70
2023-04-12T08:11:55.614Z,9.70
2023-04-12T08:14:22.452Z,9.60
2023-04-12T08:16:49.174Z,9.70
2023-04-12T08:19:16.032Z,9.70
2023-04-12T08:21:42.860Z,9.80
2023-04-12T08:24:09.617Z,9.60
2023-04-12T08:26:36.435Z,9.70
2023-04-12T08:29:03.234Z,9.60
2023-04-12T08:31:30.368Z,9.70
2023-04-12T08:33:57.241Z,9.60
2023-04-12T08:36:24.216Z,9.70
2023-04-12T08:38:52.761Z,9.70
2023-04-12T08:41:20.191Z,9.70
2023-04-12T08:43:47.786Z,9.70
2023-04-12T08:46:15.818Z,9.80
2023-04-12T08:48:46.425Z,9.70
2023-04-12T08:51:19.819Z,9.80
2023-04-12T08:53:46.876Z,9.80
2023-04-12T08:56:14.886Z,9.80
2023-04-12T08:58:50.169Z,9.90
2023-04-12T09:01:18.958Z,9.90
2023-04-12T09:03:46.921Z,9.90
2023-04-12T09:06:15.570Z,9.90
2023-04-12T09:08:53.361Z,10.10
2023-04-12T09:11:25.960Z,10.10
2023-04-12T09:13:54.654Z,10.20
2023-04-12T09:16:41.265Z,10.30
2023-04-12T09:19:09.141Z,10.30
2023-04-12T09:21:37.016Z,10.30
2023-04-12T09:24:03.853Z,10.30
2023-04-12T09:26:31.463Z,10.30
2023-04-12T09:28:58.198Z,10.30
2023-04-12T09:31:25.002Z,10.30
2023-04-12T09:33:51.860Z,10.30
2023-04-12T09:36:19.168Z,10.30
2023-04-12T09:39:02.066Z,10.30
2023-04-12T09:41:31.920Z,10.40
2023-04-12T09:44:00.023Z,10.50
2023-04-12T09:46:27.754Z,10.50
2023-04-12T09:48:58.725Z,10.50
2023-04-12T09:51:29.560Z,10.50
2023-04-12T09:54:02.456Z,10.60
2023-04-12T09:56:32.562Z,10.70
2023-04-12T09:59:07.197Z,10.60
2023-04-12T10:01:40.205Z,10.60
2023-04-12T10:04:08.770Z,10.60
2023-04-12T10:06:37.119Z,10.70
2023-04-12T10:09:05.442Z,10.70
2023-04-12T10:11:33.854Z,10.50
2023-04-12T10:14:03.105Z,10.50
2023-04-12T10:16:31.123Z,10.60
2023-04-12T10:19:02.152Z,10.50
2023-04-12T10:21:29.543Z,10.50
2023-04-12T10:23:56.492Z,10.50
2023-04-12T10:26:23.152Z,10.70
2023-04-12T10:29:27.770Z,10.60
2023-04-12T10:32:22.108Z,10.70
2023-04-12T10:34:57.972Z,10.70
2023-04-12T10:38:03.027Z,10.80
2023-04-12T10:40:31.745Z,10.90
2023-04-12T10:43:20.485Z,11.00
2023-04-12T10:45:47.211Z,10.90
2023-04-12T10:48:39.933Z,11.00
2023-04-12T10:51:25.568Z,11.10
2023-04-12T10:54:15.360Z,11.20
2023-04-12T10:56:43.946Z,11.10
2023-04-12T10:59:16.662Z,11.20
2023-04-12T11:02:04.370Z,11.30
2023-04-12T11:04:31.415Z,11.40
2023-04-12T11:07:11.925Z,11.60
2023-04-12T11:09:42.957Z,11.70
2023-04-12T11:12:15.393Z,11.80
2023-04-12T11:14:50.424Z,11.90
2023-04-12T11:17:21.953Z,11.90
2023-04-12T11:20:02.026Z,11.80
2023-04-12T11:22:31.859Z,11.70
2023-04-12T11:25:02.856Z,11.80
2023-04-12T11:27:32.175Z,11.80
2023-04-12T11:30:00.808Z,12.00
2023-04-12T11:32:29.406Z,12.20
2023-04-12T11:34:57.866Z,12.20
2023-04-12T11:37:27.212Z,12.20
2023-04-12T11:39:56.805Z,12.10
2023-04-12T11:42:26.017Z,12.20
2023-04-12T11:44:58.977Z,12.20
2023-04-12T11:47:28.724Z,12.30
2023-04-12T11:49:56.463Z,12.50
2023-04-12T11:52:30.223Z,12.60
2023-04-12T11:54:59.186Z,12.70
2023-04-12T11:57:26.303Z,12.80
2023-04-12T11:59:53.677Z,13.00
2023-04-12T12:02:24.086Z,13.20
2023-04-12T12:04:52.422Z,13.20
2023-04-12T12:07:21.362Z,13.40
2023-04-12T12:09:50.056Z,13.30
2023-04-12T12:12:16.801Z,13.00
2023-04-12T12:14:48.865Z,12.90
2023-04-12T12:17:17.197Z,12.70
2023-04-12T12:19:46.170Z,12.60
2023-04-12T12:22:21.857Z,12.60
2023-04-12T12:24:57.034Z,12.60
2023-04-12T12:27:25.876Z,12.70
2023-04-12T12:29:54.965Z,12.90
2023-04-12T12:32:23.628Z,13.00
2023-04-12T12:34:55.066Z,12.80
2023-04-12T12:37:26.887Z,12.80
2023-04-12T12:40:13.934Z,12.90
2023-04-12T12:42:48.538Z,12.80
2023-04-12T12:45:17.140Z,12.80
2023-04-12T12:48:02.492Z,12.70
2023-04-12T12:50:32.132Z,12.70
2023-04-12T12:53:02.791Z,12.90
2023-04-12T12:55:31.100Z,12.70
2023-04-12T12:58:06.808Z,12.60
2023-04-12T13:00:34.934Z,12.50
2023-04-12T13:03:02.064Z,12.40
2023-04-12T13:05:30.249Z,12.30
2023-04-12T13:07:56.976Z,12.30
2023-04-12T13:10:23.838Z,12.30
2023-04-12T13:12:50.766Z,12.20
2023-04-12T13:15:23.180Z,12.20
2023-04-12T13:17:55.018Z,12.20
2023-04-12T13:20:25.431Z,12.10
2023-04-12T13:22:52.208Z,12.00
2023-04-12T13:25:19.877Z,11.90
2023-04-12T13:27:48.722Z,11.90
2023-04-12T13:30:15.914Z,11.90
2023-04-12T13:32:44.745Z,11.90
2023-04-12T13:35:12.273Z,11.90
2023-04-12T13:37:39.592Z,12.30
2023-04-12T13:40:07.458Z,12.60
2023-04-12T13:42:34.577Z,12.80
2023-04-12T13:45:01.483Z,13.00
2023-04-12T13:47:28.332Z,13.00
2023-04-12T13:49:55.327Z,13.10
2023-04-12T13:52:22.228Z,13.10
2023-04-12T13:54:49.115Z,12.90
2023-04-12T13:57:16.282Z,12.70
2023-04-12T13:59:42.975Z,12.70
2023-04-12T14:02:09.857Z,12.70
2023-04-12T14:04:36.790Z,12.50
2023-04-12T14:07:03.655Z,12.40
2023-04-12T14:09:31.540Z,12.20
2023-04-12T14:11:59.868Z,12.10
2023-04-12T14:14:27.482Z,12.10
2023-04-12T14:16:58.501Z,12.10
2023-04-12T14:19:25.472Z,12.00
2023-04-12T14:21:52.671Z,12.10
2023-04-12T14:24:23.165Z,12.00
2023-04-12T14:26:53.308Z,12.00
2023-04-12T14:29:20.078Z,12.00
2023-04-12T14:31:46.803Z,12.00
2023-04-12T14:34:13.665Z,12.00
2023-04-12T14:36:40.769Z,11.90
2023-04-12T14:39:10.469Z,11.70
2023-04-12T14:41:38.355Z,11.70
2023-04-12T14:44:05.743Z,11.70
2023-04-12T14:46:32.532Z,11.70
2023-04-12T14:49:01.496Z,11.70
2023-04-12T14:51:29.322Z,11.80
2023-04-12T14:53:56.671Z,11.90
2023-04-12T14:56:28.755Z,12.00
2023-04-12T14:58:57.549Z,12.10
2023-04-12T15:01:25.344Z,12.10
2023-04-12T15:03:53.322Z,12.20
2023-04-12T15:06:22.907Z,12.20
2023-04-12T15:08:54.396Z,12.30
2023-04-12T15:11:26.267Z,12.20
2023-04-12T15:13:53.719Z,12.30
2023-04-12T15:16:20.809Z,12.40
2023-04-12T15:18:48.206Z,12.40
2023-04-12T15:21:15.965Z,12.50
2023-04-12T15:23:43.405Z,12.50
2023-04-12T15:26:11.993Z,12.70
2023-04-12T15:28:39.951Z,13.10
2023-04-12T15:31:08.479Z,14.20
2023-04-12T15:33:37.835Z,15.90
2023-04-12T15:36:05.640Z,16.00
2023-04-12T15:38:40.887Z,15.80
2023-04-12T15:41:08.706Z,15.30
2023-04-12T15:43:36.569Z,14.60
2023-04-12T15:46:04.675Z,14.00
2023-04-12T15:48:32.735Z,13.80
2023-04-12T15:51:00.511Z,13.60
2023-04-12T15:53:28.234Z,13.40
2023-04-12T15:55:56.257Z,13.50
2023-04-12T15:58:24.831Z,13.50
2023-04-12T16:00:54.589Z,13.70
2023-04-12T16:03:23.640Z,14.10
2023-04-12T16:05:55.064Z,15.20
2023-04-12T16:08:23.182Z,17.00
2023-04-12T16:10:53.265Z,18.60
2023-04-12T16:13:21.752Z,18.90
2023-04-12T16:15:48.761Z,19.30
2023-04-12T16:18:17.158Z,20.70
2023-04-12T16:20:43.971Z,21.50
2023-04-12T16:23:11.531Z,21.80
2023-04-12T16:25:38.618Z,21.90
2023-04-12T16:28:07.382Z,21.80
2023-04-12T16:30:35.047Z,22.10
2023-04-12T16:33:01.998Z,21.10
2023-04-12T16:35:28.875Z,20.70
2023-04-12T16:37:55.953Z,20.00
2023-04-12T16:40:24.592Z,20.30
2023-04-12T16:42:51.627Z,19.20
2023-04-12T16:45:18.724Z,19.20
2023-04-12T16:47:48.712Z,19.20
2023-04-12T16:50:15.798Z,19.00
2023-04-12T16:52:42.703Z,18.60
2023-04-12T16:55:12.902Z,18.80
2023-04-12T16:57:41.520Z,18.50
2023-04-12T17:00:25.348Z,18.00
2023-04-12T17:02:53.861Z,17.30
2023-04-12T17:05:22.259Z,16.80
2023-04-12T17:07:51.342Z,16.40
2023-04-12T17:10:19.727Z,16.30
2023-04-12T17:12:48.215Z,16.60
2023-04-12T17:15:17.318Z,16.90
2023-04-12T17:17:48.051Z,16.90
2023-04-12T17:20:19.712Z,16.40
2023-04-12T17:22:47.936Z,15.50
2023-04-12T17:25:15.046Z,14.90
2023-04-12T17:27:42.484Z,14.60
2023-04-12T17:30:12.244Z,14.10
2023-04-12T17:32:40.486Z,13.80
2023-04-12T17:35:07.802Z,13.40
2023-04-12T17:37:34.977Z,13.30
2023-04-12T17:40:02.112Z,13.20
2023-04-12T17:42:28.908Z,13.10
2023-04-12T17:44:55.916Z,13.10
2023-04-12T17:47:23.080Z,13.00
2023-04-12T17:49:50.161Z,13.00
2023-04-12T17:52:17.388Z,13.00
2023-04-12T17:54:44.412Z,12.90
2023-04-12T17:57:11.560Z,12.90
2023-04-12T17:59:38.463Z,12.80
2023-04-12T18:02:05.271Z,12.70
2023-04-12T18:04:32.349Z,12.60
2023-04-12T18:06:59.356Z,12.60
2023-04-12T18:09:27.064Z,12.50
2023-04-12T18:11:53.892Z,12.40
2023-04-12T18:14:20.898Z,12.40
2023-04-12T18:16:47.874Z,12.30
2023-04-12T18:19:16.307Z,12.20
2023-04-12T18:21:43.912Z,12.10
2023-04-12T18:24:10.876Z,12.00
2023-04-12T18:26:37.749Z,11.90
2023-04-12T18:29:04.635Z,11.80
2023-04-12T18:31:31.944Z,11.80
2023-04-12T18:34:01.623Z,11.70
2023-04-12T18:36:38.485Z,11.70
2023-04-12T18:39:07.709Z,11.70
2023-04-12T18:41:34.989Z,11.70
2023-04-12T18:44:06.420Z,11.60
2023-04-12T18:46:34.217Z,11.60
2023-04-12T18:49:06.326Z,11.60
2023-04-12T18:51:33.815Z,11.50
2023-04-12T18:54:02.528Z,11.50
2023-04-12T18:56:31.352Z,11.60
2023-04-12T18:59:03.528Z,11.50
2023-04-12T19:01:32.415Z,11.70
2023-04-12T19:04:02.020Z,11.50
2023-04-12T19:06:30.317Z,11.50
2023-04-12T19:08:58.253Z,11.10
2023-04-12T19:11:28.047Z,10.70
2023-04-12T19:14:02.865Z,10.40
2023-04-12T19:16:32.599Z,10.30
2023-04-12T19:19:03.652Z,10.00
2023-04-12T19:21:39.130Z,9.80
2023-04-12T19:24:07.931Z,9.60
2023-04-12T19:26:39.103Z,9.50
2023-04-12T19:29:10.393Z,9.40
2023-04-12T19:31:38.469Z,9.30
2023-04-12T19:34:09.159Z,9.20
2023-04-12T19:36:38.021Z,9.30
2023-04-12T19:39:06.137Z,9.20
2023-04-12T19:41:34.138Z,9.20
2023-04-12T19:44:07.030Z,9.10
2023-04-12T19:46:39.094Z,9.00
2023-04-12T19:49:09.073Z,9.00
2023-04-12T19:51:37.291Z,8.90
2023-04-12T19:54:05.820Z,8.70
2023-04-12T19:56:33.354Z,8.60
2023-04-12T19:59:01.332Z,8.60
2023-04-12T20:01:34.568Z,8.40
2023-04-12T20:04:02.294Z,8.30
2023-04-12T20:06:29.441Z,8.20
2023-04-12T20:08:56.398Z,8.10
2023-04-12T20:11:24.214Z,7.90
2023-04-12T20:13:51.763Z,7.90
2023-04-12T20:16:19.473Z,7.80
2023-04-12T20:18:46.768Z,7.70
2023-04-12T20:21:13.508Z,7.60
2023-04-12T20:23:40.790Z,7.50
2023-04-12T20:26:08.720Z,7.50
2023-04-12T20:28:35.904Z,7.40
2023-04-12T20:31:02.758Z,7.30
2023-04-12T20:33:30.056Z,7.30
2023-04-12T20:35:56.802Z,7.20
2023-04-12T20:38:23.581Z,7.20
2023-04-12T20:40:50.336Z,7.10
2023-04-12T20:43:17.171Z,7.10
2023-04-12T20:45:46.928Z,7.00
2023-04-12T20:48:13.766Z,7.00
2023-04-12T20:50:41.107Z,6.90
2023-04-12T20:53:09.943Z,7.00
2023-04-12T20:55:36.802Z,7.10
2023-04-12T20:58:04.844Z,7.10
2023-04-12T21:00:33.819Z,7.10
2023-04-12T21:03:04.243Z,7.00
2023-04-12T21:05:34.899Z,6.90
2023-04-12T21:08:02.273Z,6.90
2023-04-12T21:10:29.372Z,6.90
2023-04-12T21:12:56.052Z,7.00
2023-04-12T21:15:23.029Z,7.00
2023-04-12T21:17:52.241Z,7.00
2023-04-12T21:20:19.231Z,6.90
2023-04-12T21:22:48.006Z,6.80
2023-04-12T21:25:16.305Z,6.70
2023-04-12T21:27:43.598Z,6.60
2023-04-12T21:30:13.846Z,6.70
2023-04-12T21:32:41.399Z,6.70
2023-04-12T21:35:09.776Z,6.70
2023-04-12T21:37:38.290Z,6.60
2023-04-12T21:40:09.911Z,6.60
2023-04-12T21:42:37.421Z,6.70
2023-04-12T21:45:08.714Z,6.70
2023-04-12T21:47:35.990Z,6.80
2023-04-12T21:50:03.100Z,6.80
2023-04-12T21:52:29.939Z,6.80
2023-04-12T21:54:56.824Z,6.90
2023-04-12T21:57:23.607Z,6.90
2023-04-12T21:59:50.441Z,7.10
2023-04-12T22:02:17.262Z,7.20
2023-04-12T22:04:44.213Z,7.30
2023-04-12T22:07:12.989Z,7.40
2023-04-12T22:09:41.593Z,7.40
2023-04-12T22:12:09.351Z,7.50
2023-04-12T22:14:36.877Z,7.60
2023-04-12T22:17:06.048Z,7.70
2023-04-12T22:19:33.052Z,7.70
2023-04-12T22:21:59.758Z,7.70
2023-04-12T22:24:26.490Z,7.60
2023-04-12T22:26:57.319Z,7.60
2023-04-12T22:29:25.193Z,7.70
2023-04-12T22:31:52.568Z,7.60
2023-04-12T22:34:19.299Z,7.60
2023-04-12T22:36:51.505Z,7.60
2023-04-12T22:39:21.470Z,7.60
2023-04-12T22:41:53.256Z,7.60
2023-04-12T22:44:23.179Z,7.60
2023-04-12T22:46:50.835Z,7.60
2023-04-12T22:49:18.388Z,7.60
2023-04-12T22:51:45.319Z,7.60
2023-04-12T22:54:12.307Z,7.60
2023-04-12T22:56:41.685Z,7.60
2023-04-12T22:59:09.022Z,7.60
2023-04-12T23:01:35.824Z,7.60
2023-04-12T23:04:02.645Z,7.70
2023-04-12T23:06:30.018Z,7.70
2023-04-12T23:09:00.004Z,7.80
2023-04-12T23:11:28.929Z,7.80
2023-04-12T23:13:55.771Z,7.80
2023-04-12T23:16:22.564Z,7.80
2023-04-12T23:18:51.228Z,7.70
2023-04-12T23:21:18.071Z,7.70
2023-04-12T23:23:44.838Z,7.70
2023-04-12T23:26:11.951Z,7.70
2023-04-12T23:28:40.301Z,7.70
2023-04-12T23:31:07.835Z,7.70
2023-04-12T23:33:34.696Z,7.70
2023-04-12T23:36:05.419Z,7.80
2023-04-12T23:38:33.871Z,7.80
2023-04-12T23:41:02.325Z,7.80
2023-04-12T23:43:29.680Z,7.80
2023-04-12T23:45:57.267Z,7.90
2023-04-12T23:48:24.371Z,7.90
2023-04-12T23:50:51.718Z,7.90
2023-04-12T23:53:19.912Z,8.00
2023-04-12T23:55:48.853Z,7.90
2023-04-12T23:58:16.110Z,7.90
